createdAt,value
2023-03-12T07:44:57.308Z,-38.82
2023-03-12T07:47:24.686Z,-40.20
2023-03-12T07:49:51.924Z,-41.11
2023-03-12T07:52:20.281Z,-39.25
2023-03-12T07:54:47.050Z,-38.42
2023-03-12T07:57:13.730Z,-40.12
2023-03-12T07:59:40.282Z,-38.10
2023-03-12T08:02:07.064Z,-38.93
2023-03-12T08:04:33.672Z,-40.40
2023-03-12T08:07:00.248Z,-40.71
2023-03-12T08:09:26.738Z,-41.50
2023-03-12T08:11:53.406Z,-40.43
2023-03-12T08:14:20.137Z,-38.96
2023-03-12T08:16:46.773Z,-39.25
2023-03-12T08:19:13.325Z,-40.22
2023-03-12T08:21:39.851Z,-40.59
2023-03-12T08:24:06.788Z,-40.67
2023-03-12T08:26:33.250Z,-40.79
2023-03-12T08:29:02.381Z,-41.33
2023-03-12T08:31:29.342Z,-41.82
2023-03-12T08:33:56.119Z,-41.89
2023-03-12T08:36:22.786Z,-39.91
2023-03-12T08:38:49.328Z,-40.59
2023-03-12T08:41:19.228Z,-41.14
2023-03-12T08:43:46.821Z,-41.50
2023-03-12T08:46:13.879Z,-41.58
2023-03-12T08:48:41.104Z,-41.69
2023-03-12T08:51:07.845Z,-39.95
2023-03-12T08:53:36.261Z,-39.29
2023-03-12T08:56:03.699Z,-39.70
2023-03-12T08:58:30.662Z,-40.81
2023-03-12T09:00:57.692Z,-41.43
2023-03-12T09:03:24.957Z,-41.51
2023-03-12T09:05:51.716Z,-41.72
2023-03-12T09:08:18.505Z,-41.48
2023-03-12T09:10:50.117Z,-41.43
2023-03-12T09:13:16.932Z,-41.39
2023-03-12T09:15:44.029Z,-41.45
2023-03-12T09:18:10.559Z,-41.74
2023-03-12T09:20:37.106Z,-41.77
2023-03-12T09:23:03.597Z,-41.79
2023-03-12T09:25:30.116Z,-41.75
2023-03-12T09:27:56.811Z,-41.69
2023-03-12T09:30:26.445Z,-41.66
2023-03-12T09:32:53.644Z,-41.52
2023-03-12T09:35:20.350Z,-41.34
2023-03-12T09:37:49.713Z,-40.79
2023-03-12T09:40:23.336Z,-40.72
2023-03-12T09:42:54.829Z,-40.59
2023-03-12T09:45:30.807Z,-40.86
2023-03-12T09:47:59.392Z,-40.95
2023-03-12T09:50:30.227Z,-41.24
2023-03-12T09:53:02.363Z,-41.26
2023-03-12T09:55:37.367Z,-41.29
2023-03-12T09:58:04.257Z,-41.18
2023-03-12T10:00:34.725Z,-41.53
2023-03-12T10:03:09.910Z,-41.78
2023-03-12T10:05:37.266Z,-41.75
2023-03-12T10:08:25.101Z,-42.01
2023-03-12T10:11:16.240Z,-42.16
2023-03-12T10:14:23.038Z,-41.99
2023-03-12T10:17:31.759Z,-41.93
2023-03-12T10:20:10.617Z,-41.98
2023-03-12T10:22:46.196Z,-41.93
2023-03-12T10:25:30.162Z,-41.95
2023-03-12T10:28:07.500Z,-42.03
2023-03-12T10:30:34.159Z,-41.93
2023-03-12T10:33:04.391Z,-41.76
2023-03-12T10:35:31.761Z,-41.62
2023-03-12T10:38:01.017Z,-41.52
2023-03-12T10:40:30.087Z,-41.63
2023-03-12T10:42:56.917Z,-41.83
2023-03-12T10:45:32.936Z,-41.79
2023-03-12T10:48:02.676Z,-41.79
2023-03-12T10:50:34.023Z,-41.78
2023-03-12T10:53:23.661Z,-41.65
2023-03-12T10:56:02.466Z,-41.61
2023-03-12T10:58:49.983Z,-41.39
2023-03-12T11:01:20.367Z,-41.53
2023-03-12T11:03:47.070Z,-41.55
2023-03-12T11:06:25.625Z,-41.56
2023-03-12T11:09:17.594Z,-41.71
2023-03-12T11:11:47.686Z,-41.58
2023-03-12T11:14:19.154Z,-41.61
2023-03-12T11:16:45.879Z,-41.58
2023-03-12T11:19:14.812Z,-41.72
2023-03-12T11:21:55.693Z,-41.61
2023-03-12T11:24:22.267Z,-41.30
2023-03-12T11:26:56.596Z,-41.22
2023-03-12T11:29:25.529Z,-41.13
2023-03-12T11:31:57.438Z,-40.93
2023-03-12T11:34:29.629Z,-40.58
2023-03-12T11:37:01.770Z,-40.38
2023-03-12T11:39:40.062Z,-40.38
2023-03-12T11:42:20.941Z,-40.54
2023-03-12T11:45:20.978Z,-40.83
2023-03-12T11:48:13.272Z,-40.87
2023-03-12T11:50:47.596Z,-40.82
2023-03-12T11:53:45.674Z,-40.93
2023-03-12T11:56:16.696Z,-40.81
2023-03-12T11:59:04.274Z,-41.03
2023-03-12T12:01:55.579Z,-41.10
2023-03-12T12:04:44.029Z,-41.03
2023-03-12T12:07:24.036Z,-41.27
2023-03-12T12:09:58.126Z,-41.15
2023-03-12T12:13:22.669Z,-41.17
2023-03-12T12:16:12.541Z,-41.08
2023-03-12T12:18:43.208Z,-41.20
2023-03-12T12:21:28.488Z,-41.15
2023-03-12T12:24:16.363Z,-41.09
2023-03-12T12:27:04.039Z,-41.03
2023-03-12T12:30:08.398Z,-40.85
2023-03-12T12:32:40.845Z,-40.63
2023-03-12T12:35:19.534Z,-40.23
2023-03-12T12:37:50.697Z,-40.22
2023-03-12T12:40:31.099Z,-40.33
2023-03-12T12:43:42.781Z,-40.24
2023-03-12T12:46:14.727Z,-40.34
2023-03-12T12:48:47.836Z,-40.55
2023-03-12T12:51:20.372Z,-40.83
2023-03-12T12:53:56.530Z,-40.59
2023-03-12T12:56:29.449Z,-40.47
2023-03-12T12:59:10.740Z,-40.46
2023-03-12T13:01:38.222Z,-40.61
2023-03-12T13:04:11.246Z,-40.55
2023-03-12T13:07:17.085Z,-40.71
2023-03-12T13:09:54.930Z,-40.49
2023-03-12T13:12:30.691Z,-40.23
2023-03-12T13:14:58.349Z,-40.38
2023-03-12T13:17:32.681Z,-40.56
2023-03-12T13:20:06.021Z,-40.48
2023-03-12T13:22:38.154Z,-40.57
2023-03-12T13:25:21.695Z,-40.55
2023-03-12T13:27:58.088Z,-40.24
2023-03-12T13:30:33.832Z,-40.04
2023-03-12T13:33:01.805Z,-40.19
2023-03-12T13:35:31.409Z,-40.36
2023-03-12T13:38:37.596Z,-40.27
2023-03-12T13:41:05.756Z,-40.53
2023-03-12T13:43:42.473Z,-40.51
2023-03-12T13:46:28.104Z,-40.15
2023-03-12T13:48:58.034Z,-39.90
2023-03-12T13:51:25.245Z,-39.87
2023-03-12T13:53:58.894Z,-39.90
2023-03-12T13:56:28.671Z,-40.05
2023-03-12T13:59:06.447Z,-40.06
2023-03-12T14:01:55.031Z,-40.23
2023-03-12T14:04:24.734Z,-40.12
2023-03-12T14:06:59.184Z,-40.05
2023-03-12T14:09:39.944Z,-40.12
2023-03-12T14:12:19.940Z,-39.89
2023-03-12T14:15:16.757Z,-40.03
2023-03-12T14:17:44.324Z,-39.79
2023-03-12T14:20:16.598Z,-39.74
2023-03-12T14:22:55.355Z,-39.70
2023-03-12T14:25:37.883Z,-39.74
2023-03-12T14:28:11.101Z,-39.88
2023-03-12T14:30:58.180Z,-39.87
2023-03-12T14:33:26.140Z,-40.12
2023-03-12T14:36:05.102Z,-40.21
2023-03-12T14:38:37.899Z,-40.35
2023-03-12T14:41:15.717Z,-40.51
2023-03-12T14:43:43.774Z,-40.57
2023-03-12T14:46:16.671Z,-40.80
2023-03-12T14:48:43.562Z,-40.71
2023-03-12T14:51:30.632Z,-40.83
2023-03-12T14:54:02.525Z,-40.90
2023-03-12T14:56:33.260Z,-40.90
2023-03-12T14:59:01.899Z,-40.94
2023-03-12T15:01:30.874Z,-41.03
2023-03-12T15:04:01.441Z,-41.09
2023-03-12T15:06:31.408Z,-41.13
2023-03-12T15:08:59.640Z,-41.12
2023-03-12T15:11:28.045Z,-41.01
2023-03-12T15:13:56.165Z,-41.17
2023-03-12T15:16:23.128Z,-41.12
2023-03-12T15:18:50.162Z,-41.06
2023-03-12T15:21:17.204Z,-41.10
2023-03-12T15:23:45.949Z,-41.08
2023-03-12T15:26:16.378Z,-41.21
2023-03-12T15:28:43.363Z,-41.19
2023-03-12T15:31:17.088Z,-41.17
2023-03-12T15:33:44.619Z,-41.29
2023-03-12T15:36:19.745Z,-41.16
2023-03-12T15:38:49.649Z,-41.10
2023-03-12T15:41:26.757Z,-41.04
2023-03-12T15:43:57.782Z,-41.07
2023-03-12T15:46:25.307Z,-41.09
2023-03-12T15:48:54.393Z,-41.15
2023-03-12T15:51:30.791Z,-41.19
2023-03-12T15:54:20.277Z,-41.25
2023-03-12T15:56:47.023Z,-41.34
2023-03-12T15:59:16.410Z,-41.30
2023-03-12T16:01:50.452Z,-41.23
2023-03-12T16:04:17.610Z,-41.19
2023-03-12T16:06:46.974Z,-41.18
2023-03-12T16:09:17.957Z,-41.32
2023-03-12T16:11:44.597Z,-41.25
2023-03-12T16:14:17.815Z,-41.30
2023-03-12T16:16:44.577Z,-41.53
2023-03-12T16:19:19.595Z,-41.47
2023-03-12T16:21:46.496Z,-41.50
2023-03-12T16:24:15.590Z,-41.51
2023-03-12T16:27:05.261Z,-41.46
2023-03-12T16:29:37.154Z,-41.61
2023-03-12T16:32:11.442Z,-41.70
2023-03-12T16:34:37.977Z,-41.71
2023-03-12T16:37:04.495Z,-41.84
2023-03-12T16:39:33.220Z,-41.86
2023-03-12T16:42:03.179Z,-41.92
2023-03-12T16:44:32.407Z,-42.02
2023-03-12T16:47:00.296Z,-42.08
2023-03-12T16:49:27.056Z,-42.10
2023-03-12T16:51:54.465Z,-42.17
2023-03-12T16:54:20.947Z,-42.14
2023-03-12T16:56:48.546Z,-42.26
2023-03-12T16:59:37.995Z,-42.33
2023-03-12T17:02:18.781Z,-42.40
2023-03-12T17:04:45.283Z,-42.45
2023-03-12T17:07:11.797Z,-42.46
2023-03-12T17:09:38.747Z,-42.45
2023-03-12T17:12:18.709Z,-42.44
2023-03-12T17:14:45.467Z,-42.38
2023-03-12T17:17:12.019Z,-42.40
2023-03-12T17:19:38.541Z,-42.43
2023-03-12T17:22:05.128Z,-42.56
2023-03-12T17:24:31.590Z,-42.55
2023-03-12T17:26:58.559Z,-42.52
2023-03-12T17:29:25.102Z,-42.40
2023-03-12T17:31:52.069Z,-42.42
2023-03-12T17:34:18.605Z,-42.49
2023-03-12T17:36:45.110Z,-42.37
2023-03-12T17:39:11.596Z,-42.30
2023-03-12T17:41:38.258Z,-42.39
2023-03-12T17:44:07.065Z,-42.40
2023-03-12T17:46:33.650Z,-42.25
2023-03-12T17:49:00.190Z,-42.17
2023-03-12T17:51:26.681Z,-42.10
2023-03-12T17:53:53.478Z,-42.02
2023-03-12T17:56:20.026Z,-42.04
2023-03-12T17:58:46.641Z,-42.13
2023-03-12T18:01:13.806Z,-42.22
2023-03-12T18:03:40.623Z,-42.21
2023-03-12T18:06:07.229Z,-42.31
2023-03-12T18:08:33.770Z,-42.27
2023-03-12T18:11:01.780Z,-42.25
2023-03-12T18:13:31.326Z,-42.29
2023-03-12T18:15:58.367Z,-42.50
2023-03-12T18:18:26.152Z,-42.38
2023-03-12T18:20:53.136Z,-42.44
2023-03-12T18:23:19.822Z,-42.27
2023-03-12T18:25:46.431Z,-42.13
2023-03-12T18:28:14.410Z,-42.17
2023-03-12T18:30:41.340Z,-42.14
2023-03-12T18:33:07.866Z,-42.26
2023-03-12T18:35:35.073Z,-42.11
2023-03-12T18:38:01.802Z,-42.24
2023-03-12T18:40:29.541Z,-42.23
2023-03-12T18:42:59.833Z,-42.45
2023-03-12T18:45:27.464Z,-42.41
2023-03-12T18:47:54.010Z,-42.45
2023-03-12T18:50:21.577Z,-42.32
2023-03-12T18:52:48.099Z,-42.34
2023-03-12T18:55:18.375Z,-42.32
2023-03-12T18:57:46.474Z,-42.19
2023-03-12T19:00:17.589Z,-42.16
2023-03-12T19:02:47.694Z,-42.18
2023-03-12T19:05:15.184Z,-42.09
2023-03-12T19:07:42.291Z,-42.15
2023-03-12T19:10:09.574Z,-42.22
2023-03-12T19:12:42.382Z,-42.19
2023-03-12T19:15:16.378Z,-42.32
2023-03-12T19:17:42.901Z,-42.25
2023-03-12T19:20:10.413Z,-42.24
2023-03-12T19:22:36.970Z,-42.22
2023-03-12T19:25:03.731Z,-42.14
2023-03-12T19:27:30.272Z,-42.21
2023-03-12T19:29:56.769Z,-42.38
2023-03-12T19:32:25.321Z,-42.39
2023-03-12T19:34:54.180Z,-42.45
2023-03-12T19:37:22.090Z,-42.54
2023-03-12T19:39:48.677Z,-42.67
2023-03-12T19:42:16.065Z,-42.55
2023-03-12T19:44:42.532Z,-42.49
2023-03-12T19:47:09.387Z,-42.47
2023-03-12T19:49:36.422Z,-42.53
2023-03-12T19:52:04.357Z,-42.39
2023-03-12T19:54:30.874Z,-42.31
2023-03-12T19:56:57.389Z,-42.28
2023-03-12T19:59:23.939Z,-42.23
2023-03-12T20:01:50.544Z,-42.28
2023-03-12T20:04:17.134Z,-42.33
2023-03-12T20:06:43.613Z,-42.34
2023-03-12T20:09:10.517Z,-42.40
2023-03-12T20:11:37.132Z,-42.27
2023-03-12T20:14:06.492Z,-42.22
2023-03-12T20:16:33.054Z,-42.27
2023-03-12T20:18:59.617Z,-42.30
2023-03-12T20:21:26.292Z,-42.32
2023-03-12T20:23:57.292Z,-42.43
2023-03-12T20:26:23.877Z,-42.52
2023-03-12T20:28:50.317Z,-42.49
2023-03-12T20:31:17.816Z,-42.49
2023-03-12T20:33:44.423Z,-42.43
2023-03-12T20:36:12.962Z,-42.48
2023-03-12T20:38:40.012Z,-42.38
2023-03-12T20:41:13.977Z,-42.43
2023-03-12T20:43:44.742Z,-42.42
2023-03-12T20:46:12.482Z,-42.43
2023-03-12T20:48:38.984Z,-42.50
2023-03-12T20:51:05.779Z,-42.40
2023-03-12T20:53:32.269Z,-42.49
2023-03-12T20:55:58.774Z,-42.40
2023-03-12T20:58:25.306Z,-42.40
2023-03-12T21:00:51.782Z,-42.33
2023-03-12T21:03:19.247Z,-42.45
2023-03-12T21:05:56.629Z,-42.52
2023-03-12T21:08:24.343Z,-42.59
2023-03-12T21:10:51.131Z,-42.58
2023-03-12T21:13:19.193Z,-42.58
2023-03-12T21:15:45.869Z,-42.59
2023-03-12T21:18:12.592Z,-42.54
2023-03-12T21:20:40.382Z,-42.60
2023-03-12T21:23:08.060Z,-42.58
2023-03-12T21:25:39.040Z,-42.61
2023-03-12T21:28:06.873Z,-42.65
2023-03-12T21:30:33.849Z,-42.66
2023-03-12T21:33:03.314Z,-42.72
2023-03-12T21:35:29.913Z,-42.63
2023-03-12T21:37:56.828Z,-42.69
2023-03-12T21:40:24.103Z,-42.76
2023-03-12T21:42:50.665Z,-42.75
2023-03-12T21:45:17.246Z,-42.73
2023-03-12T21:47:43.993Z,-42.86
2023-03-12T21:50:11.085Z,-42.88
2023-03-12T21:52:42.990Z,-42.84
2023-03-12T21:55:10.604Z,-42.86
2023-03-12T21:57:37.171Z,-42.83
2023-03-12T22:00:04.902Z,-42.81
2023-03-12T22:02:31.731Z,-42.84
2023-03-12T22:05:00.898Z,-42.81
2023-03-12T22:07:30.087Z,-42.75
2023-03-12T22:09:56.666Z,-42.90
2023-03-12T22:12:23.278Z,-42.93
2023-03-12T22:14:49.776Z,-42.88
2023-03-12T22:17:17.176Z,-42.77
2023-03-12T22:19:44.094Z,-42.86
2023-03-12T22:22:10.656Z,-42.79
2023-03-12T22:24:37.477Z,-42.83
2023-03-12T22:27:06.529Z,-42.89
2023-03-12T22:29:34.073Z,-42.85
2023-03-12T22:32:00.520Z,-42.78
2023-03-12T22:34:27.062Z,-42.74
2023-03-12T22:36:53.635Z,-42.71
2023-03-12T22:39:20.203Z,-42.77
2023-03-12T22:41:50.653Z,-42.74
2023-03-12T22:44:17.334Z,-42.82
2023-03-12T22:46:43.997Z,-42.90
2023-03-12T22:49:10.558Z,-42.88
2023-03-12T22:51:37.322Z,-42.88
2023-03-12T22:54:04.442Z,-42.84
2023-03-12T22:56:30.960Z,-42.94
2023-03-12T22:58:57.474Z,-42.96
2023-03-12T23:01:24.291Z,-42.93
2023-03-12T23:03:51.145Z,-42.99
2023-03-12T23:06:23.544Z,-42.98
2023-03-12T23:08:51.191Z,-43.02
2023-03-12T23:11:20.772Z,-42.92
2023-03-12T23:13:48.316Z,-42.84
2023-03-12T23:16:23.752Z,-42.87
2023-03-12T23:18:50.756Z,-42.88
2023-03-12T23:21:19.656Z,-42.90
2023-03-12T23:23:47.251Z,-42.92
2023-03-12T23:26:19.696Z,-42.88
2023-03-12T23:28:47.392Z,-42.89
2023-03-12T23:31:16.228Z,-42.83
2023-03-12T23:33:42.924Z,-42.83
2023-03-12T23:36:15.048Z,-42.82
2023-03-12T23:38:42.463Z,-42.82
2023-03-12T23:41:16.115Z,-42.84
2023-03-12T23:43:43.082Z,-42.73
2023-03-12T23:46:10.686Z,-42.78
2023-03-12T23:48:37.910Z,-42.73
2023-03-12T23:51:12.834Z,-42.80
2023-03-12T23:53:40.616Z,-42.73
2023-03-12T23:56:10.258Z,-42.64
2023-03-12T23:58:36.881Z,-42.62
